CHICAGO AURORA MUNICIPAL, IL, United States (KARR) 41-46N 088-28W 215M
Wind: Calm:0
Visibility: 10 mile(s):0
Sky conditions: mostly cloudy
Temperature: 43.0 F (6.1 C)
Dew Point: 37.9 F (3.3 C)
Relative Humidity: 82%
Pressure (altimeter): 30.35 in. Hg (1027 hPa)
Pressure tendency: 0.01 inches (0.2 hPa) lower than three hours ago
ob: KARR 230852Z AUTO 00000KT 10SM BKN070 06/03 A3035 RMK AO2 SLP280 T00610033 56002
Raw METAR:KARR 230852Z AUTO 00000KT 10SM BKN070 06/03 A3035 RMK AO2 SLP280 T00610033 56002
cycle: 9
Back to top

CHICAGO/WEST CH DUPAGE, IL, United States (KDPA) 41-54N 88-15W 230M
Wind: from the N (360 degrees) at 3 MPH (3 KT):0
Visibility: 10 mile(s):0
Sky conditions: overcast
Temperature: 42.1 F (5.6 C)
Dew Point: 37.9 F (3.3 C)
Relative Humidity: 85%
Pressure (altimeter): 30.35 in. Hg (1027 hPa)
Pressure tendency: 0.00 inches (0.1 hPa) lower than three hours ago
ob: KDPA 230852Z 36003KT 10SM OVC070 06/03 A3035 RMK AO2 SLP280 T00560033 56001
Raw METAR:KDPA 230852Z 36003KT 10SM OVC070 06/03 A3035 RMK AO2 SLP280 T00560033 56001
cycle: 9
Back to top

De Kalb, De Kalb Taylor Municipal Airport, IL, United States (KDKB) 41-55-55N 088-42-30W
Wind: from the E (080 degrees) at 5 MPH (4 KT):0
Visibility: 10 mile(s):0
Sky conditions: overcast
Temperature: 43.2 F (6.2 C)
Dew Point: 37.4 F (3.0 C)
Relative Humidity: 79%
Pressure (altimeter): 30.36 in. Hg (1028 hPa)
ob: KDKB 230855Z AUTO 08004KT 10SM OVC070 06/03 A3036 RMK AO2 T00620030
Raw METAR:KDKB 230855Z AUTO 08004KT 10SM OVC070 06/03 A3036 RMK AO2 T00620030
cycle: 9
Back to top

Joliet, Joliet Regional Airport, IL, United States (KJOT) 41-31-05N 088-10-31W
Wind: Calm:0
Visibility: 10 mile(s):0
Sky conditions: clear
Temperature: 41.5 F (5.3 C)
Dew Point: 39.9 F (4.4 C)
Relative Humidity: 93%
Pressure (altimeter): 30.36 in. Hg (1028 hPa)
ob: KJOT 230855Z AUTO 00000KT 10SM CLR 05/04 A3036 RMK AO2 T00530044
Raw METAR:KJOT 230855Z AUTO 00000KT 10SM CLR 05/04 A3036 RMK AO2 T00530044
cycle: 9
Back to top

Kankakee, Greater Kankakee Airport, IL, United States (KIKK) 41-04-17N 087-50-47W
Wind: from the E (080 degrees) at 3 MPH (3 KT):0
Visibility: 10 mile(s):0
Sky conditions: clear
Temperature: 46 F (8 C)
Dew Point: 42 F (6 C)
Relative Humidity: 87%
Pressure (altimeter): 30.35 in. Hg (1027 hPa)
ob: KIKK 230856Z AUTO 08003KT 10SM CLR 08/06 A3035 RMK AO2
Raw METAR:KIKK 230856Z AUTO 08003KT 10SM CLR 08/06 A3035 RMK AO2
cycle: 9
Back to top

Morris, Morris Municipal-James R Washburn Field Airport, IL, United States (KC09) 41-25-31N 088-25-07W
Wind: Calm:0
Visibility: 10 mile(s):0
Sky conditions: clear
Temperature: 45.5 F (7.5 C)
Dew Point: 39.6 F (4.2 C)
Relative Humidity: 79%
Pressure (altimeter): 30.34 in. Hg (1027 hPa)
ob: KC09 230855Z AUTO 00000KT 10SM CLR 08/04 A3034 RMK AO2 T00750042
Raw METAR:KC09 230855Z AUTO 00000KT 10SM CLR 08/04 A3034 RMK AO2 T00750042
cycle: 9
Back to top

Peru, Illinois Valley Regional-Walter A Duncan Field Airport, IL, United States (KVYS) 41-21-07N 089-09-11W
Wind: from the NNE (020 degrees) at 3 MPH (3 KT):0
Visibility: 10 mile(s):0
Sky conditions: clear
Temperature: 45.9 F (7.7 C)
Dew Point: 42.8 F (6.0 C)
Relative Humidity: 88%
Pressure (altimeter): 30.35 in. Hg (1027 hPa)
ob: KVYS 230855Z AUTO 02003KT 10SM CLR 08/06 A3035 RMK AO2 T00770060
Raw METAR:KVYS 230855Z AUTO 02003KT 10SM CLR 08/06 A3035 RMK AO2 T00770060
cycle: 9
Back to top

Rochelle, Rochelle Municipal-Koritz Field Airport, IL, United States (KRPJ) 41-53-35N 089-04-42W
Wind: from the ENE (060 degrees) at 3 MPH (3 KT):0
Visibility: 10 mile(s):0
Sky conditions: partly cloudy
Temperature: 43.7 F (6.5 C)
Dew Point: 37.6 F (3.1 C)
Relative Humidity: 78%
Pressure (altimeter): 30.36 in. Hg (1028 hPa)
ob: KRPJ 230855Z AUTO 06003KT 10SM SCT070 07/03 A3036 RMK AO2 T00650031 TSNO
Raw METAR:KRPJ 230855Z AUTO 06003KT 10SM SCT070 07/03 A3036 RMK AO2 T00650031 TSNO
cycle: 9
Back to top